KLGU/LGU METAR and TAF weather

Enter ICAO airport designator
Station Type Date Time Source
KLGU METAR 2019/12/16 03:46 UTC NOAA

KLGU 160346Z AUTO 00000KT 4SM -SN BR SCT019 BKN027 OVC095 M07/M08 A3011 RMK AO2 P0000 T10721083 $


Station Type Date Time Source
KLGU Decoded METAR 2019/12/16 03:46 UTC NOAA

LOGAN CACHE AIRPORT, UT, United States (KLGU) 41-47N 111-51W 1355M
Dec 15, 2019 - 10:46 PM EST / 2019.12.16 0346 UTC
Wind: Calm:0
Visibility: 4 mile(s):0
Sky conditions: overcast
Weather: light snow; mist
Precipitation last hour: A trace
Temperature: 19.0 F (-7.2 C)
Dew Point: 17.1 F (-8.3 C)
Relative Humidity: 91%
Pressure (altimeter): 30.11 in. Hg (1019 hPa)
ob: KLGU 160346Z AUTO 00000KT 4SM -SN BR SCT019 BKN027 OVC095 M07/M08 A3011 RMK AO2 P0000 T10721083
cycle: 4

Station Type Date Time Source
KLGU TAF 2019/12/16 02:04 UTC NOAA

TAF
AMD KLGU 160202Z 1602/1624 35004KT 1 1/2SM -SHSN OVC015
FM160400 VRB03KT P6SM VCSH OVC015
FM160900 00000KT 1/4SM FZFG VV001
FM161600 VRB04KT P6SM SCT050

Example: see airport list